METAR Data
IDs: Format: Raw Decoded Include TAF

Data at: 1651 UTC 18 Feb 2019

METAR for:KHPT (Hampton Muni, IA, US)
Text:KHPT 181635Z AUTO 32007KT 10SM CLR M11/M17 A3042 RMK AO2
Temperature:-11.0°C ( 12°F)
Dewpoint:-17.0°C ( 1°F) [RH = 61%]
Pressure (altimeter):30.42 inches Hg (1030.2 mb)
Winds:from the NW (320 degrees) at 8 MPH (7 knots; 3.6 m/s)
Visibility:10 or more sm (16+ km)
Ceiling:at least 12,000 feet AGL
Clouds:sky clear below 12,000 feet AGL
QC Flag:automated observation with no human augmentation